createdAt,value
2019-01-08T00:00:37.097Z,4.03
2019-01-08T00:03:06.639Z,5.60
2019-01-08T00:05:36.170Z,5.43
2019-01-08T00:08:05.675Z,5.27
2019-01-08T00:10:35.115Z,8.80
2019-01-08T00:13:04.643Z,7.10
2019-01-08T00:15:34.249Z,8.37
2019-01-08T00:18:03.721Z,5.77
2019-01-08T00:20:33.293Z,4.47
2019-01-08T00:23:02.801Z,5.07
2019-01-08T00:25:32.287Z,5.47
2019-01-08T00:28:01.841Z,7.93
2019-01-08T00:30:31.309Z,7.13
2019-01-08T00:33:00.881Z,4.00
2019-01-08T00:35:30.434Z,6.27
2019-01-08T00:37:59.904Z,5.87
2019-01-08T00:40:29.392Z,5.53
2019-01-08T00:42:58.892Z,7.70
2019-01-08T00:45:28.405Z,3.53
2019-01-08T00:47:57.904Z,7.30
2019-01-08T00:50:27.412Z,7.23
2019-01-08T00:52:56.887Z,3.23
2019-01-08T00:55:26.380Z,6.17
2019-01-08T00:57:55.980Z,4.30
2019-01-08T01:00:25.506Z,6.87
2019-01-08T01:02:54.994Z,7.63
2019-01-08T01:05:24.503Z,6.67
2019-01-08T01:07:53.981Z,7.47
2019-01-08T01:10:23.475Z,6.13
2019-01-08T01:12:52.968Z,6.30
2019-01-08T01:15:22.472Z,5.00
2019-01-08T01:17:51.905Z,4.33
2019-01-08T01:20:21.406Z,5.17
2019-01-08T01:22:50.897Z,6.17
2019-01-08T01:25:20.374Z,6.80
2019-01-08T01:27:49.882Z,6.20
2019-01-08T01:30:19.377Z,6.93
2019-01-08T01:32:48.851Z,6.47
2019-01-08T01:35:18.365Z,8.33
2019-01-08T01:37:47.805Z,7.87
2019-01-08T01:40:17.286Z,5.60
2019-01-08T01:42:46.789Z,5.43
2019-01-08T01:45:16.263Z,6.47
2019-01-08T01:47:45.799Z,6.53
2019-01-08T01:50:15.291Z,9.47
2019-01-08T01:52:44.777Z,5.97
2019-01-08T01:55:14.262Z,4.00
2019-01-08T01:57:43.730Z,6.07
2019-01-08T02:00:13.217Z,4.43
2019-01-08T02:02:42.666Z,4.87
2019-01-08T02:05:12.198Z,6.73
2019-01-08T02:07:41.677Z,7.23
2019-01-08T02:10:11.321Z,4.77
2019-01-08T02:12:40.836Z,4.73
2019-01-08T02:15:10.311Z,6.67
2019-01-08T02:17:39.855Z,5.93
2019-01-08T02:20:09.354Z,3.40
2019-01-08T02:22:38.828Z,6.63
2019-01-08T02:25:08.314Z,7.23
2019-01-08T02:27:37.796Z,8.53
2019-01-08T02:30:08.402Z,5.28
2019-01-08T02:32:37.871Z,7.67
2019-01-08T02:35:07.368Z,5.47
2019-01-08T02:37:36.818Z,6.23
2019-01-08T02:40:07.658Z,6.70
2019-01-08T02:42:37.166Z,5.77
2019-01-08T02:45:07.434Z,4.50
2019-01-08T02:47:36.909Z,4.80
2019-01-08T02:50:07.264Z,6.40
2019-01-08T02:52:36.748Z,4.20
2019-01-08T02:55:07.159Z,4.33
2019-01-08T02:57:36.641Z,5.97
2019-01-08T03:00:06.977Z,5.80
2019-01-08T03:02:36.464Z,5.70
2019-01-08T03:05:06.134Z,5.40
2019-01-08T03:07:35.596Z,4.73
2019-01-08T03:10:05.641Z,6.23
2019-01-08T03:12:35.210Z,3.73
2019-01-08T03:15:04.691Z,5.90
2019-01-08T03:17:34.153Z,6.77
2019-01-08T03:20:03.740Z,4.33
2019-01-08T03:22:33.214Z,4.57
2019-01-08T03:25:02.726Z,3.90
2019-01-08T03:27:32.208Z,5.00
2019-01-08T03:30:01.683Z,4.43
2019-01-08T03:32:31.197Z,6.13
2019-01-08T03:35:00.645Z,7.03
2019-01-08T03:37:30.123Z,3.53
2019-01-08T03:39:59.560Z,4.90
2019-01-08T03:42:29.149Z,2.33
2019-01-08T03:44:58.621Z,5.13
2019-01-08T03:47:28.070Z,4.60
2019-01-08T03:49:57.538Z,4.70
2019-01-08T03:52:27.007Z,3.93
2019-01-08T03:54:56.464Z,3.97
2019-01-08T03:57:25.975Z,3.33
2019-01-08T03:59:55.446Z,6.23
2019-01-08T04:02:24.901Z,8.37
2019-01-08T04:04:54.417Z,4.53
2019-01-08T04:07:23.920Z,8.07
2019-01-08T04:09:53.389Z,6.67
2019-01-08T04:12:22.893Z,5.60
2019-01-08T04:14:52.345Z,6.13
2019-01-08T04:17:21.816Z,5.77
2019-01-08T04:19:51.281Z,6.10
2019-01-08T04:22:20.756Z,6.23
2019-01-08T04:24:50.288Z,5.20
2019-01-08T04:27:19.894Z,4.77
2019-01-08T04:29:50.575Z,6.83
2019-01-08T04:32:20.472Z,5.57
2019-01-08T04:34:49.985Z,5.30
2019-01-08T04:37:19.428Z,6.90
2019-01-08T04:39:49.007Z,4.17
2019-01-08T04:42:18.488Z,7.80
2019-01-08T04:44:47.916Z,6.70
2019-01-08T04:47:17.377Z,5.87
2019-01-08T04:49:46.831Z,5.43
2019-01-08T04:52:16.217Z,8.30
2019-01-08T04:54:45.721Z,7.23
2019-01-08T04:57:15.222Z,4.57
2019-01-08T04:59:44.681Z,8.23
2019-01-08T05:02:14.155Z,6.17
2019-01-08T05:04:43.638Z,7.30
2019-01-08T05:07:13.102Z,6.67
2019-01-08T05:09:42.567Z,7.57
2019-01-08T05:12:12.076Z,6.40
2019-01-08T05:14:41.548Z,8.13
2019-01-08T05:17:11.031Z,8.53
2019-01-08T05:19:40.538Z,7.07
2019-01-08T05:22:10.014Z,9.40
2019-01-08T05:24:39.469Z,9.37
2019-01-08T05:27:08.963Z,4.73
2019-01-08T05:29:38.407Z,6.07
2019-01-08T05:32:07.909Z,7.23
2019-01-08T05:34:37.444Z,7.33
2019-01-08T05:37:06.928Z,8.10
2019-01-08T05:39:36.365Z,4.80
2019-01-08T05:42:05.906Z,5.23
2019-01-08T05:44:35.361Z,6.80
2019-01-08T05:47:04.889Z,8.53
2019-01-08T05:49:34.385Z,7.27
2019-01-08T05:52:03.843Z,6.87
2019-01-08T05:54:33.291Z,7.90
2019-01-08T05:57:02.794Z,6.43
2019-01-08T05:59:32.258Z,4.83
2019-01-08T06:02:01.735Z,10.20
2019-01-08T06:04:31.206Z,8.90
2019-01-08T06:07:00.656Z,9.50
2019-01-08T06:09:30.122Z,7.53
2019-01-08T06:11:59.602Z,7.13
2019-01-08T06:14:29.057Z,6.67
2019-01-08T06:16:58.506Z,6.93
2019-01-08T06:19:28.205Z,8.67
2019-01-08T06:21:57.632Z,6.67
2019-01-08T06:24:27.125Z,6.47
2019-01-08T06:26:56.603Z,8.57
2019-01-08T06:29:26.095Z,7.23
2019-01-08T06:31:55.625Z,9.33
2019-01-08T06:34:25.068Z,10.70
2019-01-08T06:36:54.585Z,5.93
2019-01-08T06:39:24.022Z,6.67
2019-01-08T06:41:53.564Z,9.30
2019-01-08T06:44:23.030Z,9.27
2019-01-08T06:46:52.480Z,7.80
2019-01-08T06:49:22.057Z,8.70
2019-01-08T06:51:51.531Z,7.47
2019-01-08T06:54:21.042Z,8.43
2019-01-08T06:56:50.553Z,9.87
2019-01-08T06:59:20.036Z,5.73
2019-01-08T07:01:49.559Z,8.77
2019-01-08T07:04:19.097Z,9.20
2019-01-08T07:06:48.553Z,5.37
2019-01-08T07:09:18.184Z,8.77
2019-01-08T07:11:47.732Z,8.43
2019-01-08T07:14:17.155Z,9.20
2019-01-08T07:16:46.622Z,10.43
2019-01-08T07:19:16.133Z,7.53
2019-01-08T07:21:45.701Z,5.90
2019-01-08T07:24:15.170Z,12.30
2019-01-08T07:26:44.700Z,7.17
2019-01-08T07:29:14.218Z,8.30
2019-01-08T07:31:43.792Z,5.37
2019-01-08T07:34:13.347Z,4.97
2019-01-08T07:36:42.840Z,4.70
2019-01-08T07:39:12.315Z,5.50
2019-01-08T07:41:41.813Z,8.63
2019-01-08T07:44:11.308Z,5.67
2019-01-08T07:46:40.823Z,7.53
2019-01-08T07:49:10.314Z,5.17
2019-01-08T07:51:39.781Z,8.53
2019-01-08T07:54:09.255Z,7.33
2019-01-08T07:56:38.739Z,5.03
2019-01-08T07:59:08.243Z,7.47
2019-01-08T08:01:37.753Z,6.03
2019-01-08T08:04:07.333Z,5.83
2019-01-08T08:06:36.831Z,8.93
2019-01-08T08:09:07.217Z,6.77
2019-01-08T08:11:36.733Z,5.47
2019-01-08T08:14:06.203Z,8.83
2019-01-08T08:16:35.703Z,7.50
2019-01-08T08:19:05.227Z,11.43
2019-01-08T08:21:34.747Z,5.83
2019-01-08T08:24:04.209Z,8.43
2019-01-08T08:26:33.741Z,7.63
2019-01-08T08:29:03.212Z,6.90
2019-01-08T08:31:32.738Z,6.40
2019-01-08T08:34:02.255Z,8.63
2019-01-08T08:36:31.753Z,7.47
2019-01-08T08:39:01.216Z,6.57
2019-01-08T08:41:30.730Z,7.67
2019-01-08T08:44:00.213Z,8.00
2019-01-08T08:46:29.730Z,9.63
2019-01-08T08:48:59.217Z,7.17
2019-01-08T08:51:28.718Z,9.77
2019-01-08T08:53:58.142Z,8.63
2019-01-08T08:56:27.648Z,7.67
2019-01-08T08:58:57.123Z,9.67
2019-01-08T09:01:26.597Z,12.83
2019-01-08T09:03:56.123Z,8.83
2019-01-08T09:06:25.601Z,9.07
2019-01-08T09:08:55.117Z,10.23
2019-01-08T09:11:24.719Z,8.07
2019-01-08T09:13:54.201Z,11.07
2019-01-08T09:16:23.669Z,9.97
2019-01-08T09:18:54.197Z,8.80
2019-01-08T09:21:23.716Z,6.50
2019-01-08T09:23:53.178Z,11.33
2019-01-08T09:26:22.668Z,7.80
2019-01-08T09:28:52.149Z,4.70
2019-01-08T09:31:21.717Z,10.87
2019-01-08T09:33:51.274Z,5.77
2019-01-08T09:36:20.791Z,7.30
2019-01-08T09:38:50.275Z,9.53
2019-01-08T09:41:19.839Z,6.67
2019-01-08T09:43:49.295Z,9.57
2019-01-08T09:46:18.820Z,7.50
2019-01-08T09:48:48.327Z,7.97
2019-01-08T09:51:17.828Z,7.10
2019-01-08T09:53:47.290Z,8.87
2019-01-08T09:56:16.776Z,6.23
2019-01-08T09:58:46.233Z,8.07
2019-01-08T10:01:23.601Z,7.07
2019-01-08T10:03:46.852Z,12.87
2019-01-08T10:06:16.349Z,8.40
2019-01-08T10:08:45.808Z,8.33
2019-01-08T10:11:15.339Z,8.27
2019-01-08T10:13:44.824Z,11.27
2019-01-08T10:16:14.311Z,9.47
2019-01-08T10:18:43.944Z,7.13
2019-01-08T10:21:13.437Z,7.90
2019-01-08T10:23:42.889Z,7.93
2019-01-08T10:26:12.400Z,10.10
2019-01-08T10:28:41.941Z,8.50
2019-01-08T10:31:11.431Z,6.10
2019-01-08T10:33:40.994Z,7.10
2019-01-08T10:36:10.639Z,6.63
2019-01-08T10:38:40.101Z,8.27
2019-01-08T10:41:09.641Z,8.20
2019-01-08T10:43:39.134Z,7.03
2019-01-08T10:46:08.632Z,8.57
2019-01-08T10:48:38.145Z,12.73
2019-01-08T10:51:07.655Z,6.57
2019-01-08T10:53:37.167Z,6.77
2019-01-08T10:56:06.816Z,5.43
2019-01-08T10:58:36.309Z,6.03
2019-01-08T11:01:05.802Z,7.07
2019-01-08T11:03:35.315Z,7.87
2019-01-08T11:06:04.831Z,7.23
2019-01-08T11:08:34.374Z,5.57
2019-01-08T11:11:03.910Z,6.30
2019-01-08T11:13:33.450Z,7.60
2019-01-08T11:16:02.903Z,7.60
2019-01-08T11:18:32.427Z,6.47
2019-01-08T11:21:01.898Z,4.87
2019-01-08T11:23:31.391Z,10.27
2019-01-08T11:26:00.904Z,8.27
2019-01-08T11:28:30.407Z,6.43
2019-01-08T11:30:59.891Z,7.57
2019-01-08T11:33:29.436Z,7.30
2019-01-08T11:35:58.949Z,5.73
2019-01-08T11:38:28.392Z,7.63
2019-01-08T11:40:57.921Z,9.60
2019-01-08T11:43:27.419Z,7.67
2019-01-08T11:45:56.893Z,7.10
2019-01-08T11:48:26.399Z,8.00
2019-01-08T11:50:55.893Z,5.50
2019-01-08T11:53:25.368Z,12.07
2019-01-08T11:55:54.920Z,5.93
2019-01-08T11:58:24.420Z,8.00
2019-01-08T12:00:53.891Z,5.00
2019-01-08T12:03:23.426Z,4.17
2019-01-08T12:05:52.885Z,6.73
2019-01-08T12:08:22.373Z,5.67
2019-01-08T12:10:51.895Z,5.23
2019-01-08T12:13:21.477Z,5.10
2019-01-08T12:15:50.948Z,4.60
2019-01-08T12:18:20.556Z,6.47
2019-01-08T12:20:52.486Z,5.67
2019-01-08T12:23:22.008Z,5.60
2019-01-08T12:25:51.537Z,6.03
2019-01-08T12:28:21.078Z,6.93
2019-01-08T12:30:50.723Z,6.50
2019-01-08T12:33:20.211Z,7.27
2019-01-08T12:35:49.685Z,7.97
2019-01-08T12:38:19.188Z,8.13
2019-01-08T12:40:48.710Z,6.30
2019-01-08T12:43:18.240Z,6.90
2019-01-08T12:45:47.724Z,7.37
2019-01-08T12:48:17.273Z,4.30
2019-01-08T12:50:46.790Z,8.83
2019-01-08T12:53:16.242Z,5.57
2019-01-08T12:55:45.777Z,6.37
2019-01-08T12:58:15.242Z,5.50
2019-01-08T13:00:44.743Z,5.07
2019-01-08T13:03:14.274Z,5.03
2019-01-08T13:05:43.793Z,4.50
2019-01-08T13:08:13.349Z,5.50
2019-01-08T13:10:42.895Z,5.87
2019-01-08T13:13:12.491Z,6.93
2019-01-08T13:15:42.062Z,5.90
2019-01-08T13:18:11.611Z,7.03
2019-01-08T13:20:41.108Z,8.13
2019-01-08T13:23:10.609Z,6.70
2019-01-08T13:25:40.141Z,3.90
2019-01-08T13:28:09.617Z,5.63
2019-01-08T13:30:39.121Z,7.97
2019-01-08T13:33:08.648Z,7.80
2019-01-08T13:35:38.157Z,8.00
2019-01-08T13:38:07.647Z,8.17
2019-01-08T13:40:37.158Z,6.43
2019-01-08T13:43:06.659Z,5.63
2019-01-08T13:45:36.155Z,3.07
2019-01-08T13:48:05.670Z,5.63
2019-01-08T13:50:35.176Z,5.13
2019-01-08T13:53:04.678Z,7.10
2019-01-08T13:55:34.230Z,4.90
2019-01-08T13:58:03.746Z,5.17
2019-01-08T14:00:33.211Z,7.40
2019-01-08T14:03:02.740Z,8.33
2019-01-08T14:05:32.263Z,13.23
2019-01-08T14:08:01.766Z,8.70
2019-01-08T14:10:31.404Z,8.33
2019-01-08T14:13:00.933Z,6.20
2019-01-08T14:15:30.431Z,6.50
2019-01-08T14:17:59.975Z,4.97
2019-01-08T14:20:29.463Z,7.70
2019-01-08T14:22:58.959Z,7.03
2019-01-08T14:25:28.508Z,7.10
2019-01-08T14:27:58.002Z,6.57
2019-01-08T14:30:27.518Z,5.03
2019-01-08T14:32:57.052Z,4.77
2019-01-08T14:35:26.551Z,4.63
2019-01-08T14:37:56.074Z,8.37
2019-01-08T14:40:25.621Z,7.10
2019-01-08T14:42:55.177Z,6.03
2019-01-08T14:45:24.692Z,5.90
2019-01-08T14:47:54.196Z,5.47
2019-01-08T14:50:23.757Z,5.07
2019-01-08T14:52:53.247Z,6.70
2019-01-08T14:55:22.780Z,5.63
2019-01-08T14:57:52.382Z,7.40
2019-01-08T15:00:21.892Z,4.03
2019-01-08T15:02:51.428Z,5.67
2019-01-08T15:05:20.986Z,6.33
2019-01-08T15:07:51.161Z,5.63
2019-01-08T15:10:20.665Z,6.00
2019-01-08T15:12:50.164Z,4.17
2019-01-08T15:15:19.713Z,4.20
2019-01-08T15:17:49.249Z,4.60
2019-01-08T15:20:18.767Z,5.07
2019-01-08T15:22:48.241Z,5.17
2019-01-08T15:25:17.836Z,4.47
2019-01-08T15:27:47.346Z,4.33
2019-01-08T15:30:16.845Z,5.53
2019-01-08T15:32:46.387Z,4.20
2019-01-08T15:35:15.877Z,6.00
2019-01-08T15:37:45.368Z,4.77
2019-01-08T15:40:17.499Z,5.17
2019-01-08T15:42:48.485Z,6.60
2019-01-08T15:45:22.528Z,5.07
2019-01-08T15:47:57.792Z,5.17
2019-01-08T15:50:27.283Z,6.37
2019-01-08T15:52:56.779Z,6.20
2019-01-08T15:55:26.302Z,4.67
2019-01-08T15:57:55.851Z,2.93
2019-01-08T16:00:25.418Z,4.93
2019-01-08T16:02:54.921Z,5.53
2019-01-08T16:05:24.493Z,5.07
2019-01-08T16:07:53.961Z,7.50
2019-01-08T16:10:23.473Z,9.30
2019-01-08T16:12:53.007Z,3.27
2019-01-08T16:15:22.513Z,5.27
2019-01-08T16:17:52.073Z,5.80
2019-01-08T16:20:21.600Z,5.07
2019-01-08T16:22:51.089Z,6.13
2019-01-08T16:25:20.642Z,9.40
2019-01-08T16:27:50.160Z,7.13
2019-01-08T16:30:20.221Z,5.20
2019-01-08T16:32:49.754Z,6.13
2019-01-08T16:35:19.285Z,6.33
2019-01-08T16:37:48.789Z,4.73
2019-01-08T16:40:18.337Z,6.53
2019-01-08T16:42:47.841Z,5.80
2019-01-08T16:45:17.382Z,6.33
2019-01-08T16:47:46.847Z,7.20
2019-01-08T16:50:17.401Z,4.53
2019-01-08T16:52:47.599Z,4.90
2019-01-08T16:55:18.056Z,8.63
2019-01-08T16:57:47.850Z,5.03
2019-01-08T17:00:17.830Z,6.83
2019-01-08T17:02:47.827Z,5.10
2019-01-08T17:05:17.627Z,7.57
2019-01-08T17:07:48.898Z,9.07
2019-01-08T17:10:18.932Z,6.60
2019-01-08T17:12:49.482Z,7.67
2019-01-08T17:15:21.030Z,9.37
2019-01-08T17:17:56.924Z,5.83
2019-01-08T17:22:21.254Z,8.63
2019-01-08T17:27:55.307Z,5.63
2019-01-08T17:30:26.599Z,8.47
2019-01-08T17:32:57.319Z,6.50
2019-01-08T17:35:26.984Z,5.80
2019-01-08T17:37:57.181Z,6.43
2019-01-08T17:40:27.819Z,7.93
2019-01-08T17:42:57.469Z,7.43
2019-01-08T17:45:27.660Z,5.00
2019-01-08T17:47:57.784Z,7.93
2019-01-08T17:50:28.620Z,6.90
2019-01-08T17:52:58.457Z,7.70
2019-01-08T17:55:28.116Z,5.13
2019-01-08T17:58:46.929Z,6.60
2019-01-08T18:01:28.483Z,5.23
2019-01-08T18:03:58.004Z,5.13
2019-01-08T18:06:27.561Z,5.00
2019-01-08T18:08:57.100Z,5.07
2019-01-08T18:11:27.233Z,6.83
2019-01-08T18:13:56.787Z,3.47
2019-01-08T18:16:26.465Z,4.23
2019-01-08T18:18:57.792Z,4.83
2019-01-08T18:21:27.305Z,5.50
2019-01-08T18:23:56.831Z,4.63
2019-01-08T18:26:26.382Z,5.13
2019-01-08T18:28:57.240Z,5.47
2019-01-08T18:31:26.765Z,3.47
2019-01-08T18:33:56.415Z,3.30
2019-01-08T18:36:25.925Z,2.60
2019-01-08T18:38:58.181Z,2.00
2019-01-08T18:41:27.731Z,2.10
2019-01-08T18:43:57.244Z,2.47
2019-01-08T18:46:26.733Z,4.10
2019-01-08T18:48:56.265Z,2.93
2019-01-08T18:51:25.756Z,3.37
2019-01-08T18:53:55.253Z,6.27
2019-01-08T18:56:24.788Z,2.60
2019-01-08T18:58:54.325Z,3.97
2019-01-08T19:01:23.843Z,2.73
2019-01-08T19:03:59.724Z,3.90
2019-01-08T19:06:24.844Z,3.17
2019-01-08T19:09:25.554Z,3.50
2019-01-08T19:11:55.630Z,5.90
2019-01-08T19:14:28.209Z,2.67
2019-01-08T19:16:57.744Z,2.77
2019-01-08T19:19:27.292Z,3.00
2019-01-08T19:21:56.804Z,4.23
2019-01-08T19:24:26.334Z,4.73
2019-01-08T19:26:55.854Z,1.97
2019-01-08T19:29:25.371Z,2.00
2019-01-08T19:31:54.858Z,2.13
2019-01-08T19:34:24.583Z,3.20
2019-01-08T19:36:54.158Z,4.00
2019-01-08T19:39:23.675Z,1.67
2019-01-08T19:41:53.159Z,3.10
2019-01-08T19:44:22.691Z,2.60
2019-01-08T19:46:52.198Z,2.90
2019-01-08T19:49:21.740Z,3.90
2019-01-08T19:51:51.305Z,3.27
2019-01-08T19:54:20.833Z,5.73
2019-01-08T19:56:50.309Z,3.20
2019-01-08T19:59:19.860Z,2.50
2019-01-08T20:01:49.344Z,2.37
2019-01-08T20:04:19.792Z,3.40
2019-01-08T20:06:49.324Z,3.70
2019-01-08T20:09:25.251Z,1.73
2019-01-08T20:11:49.970Z,1.43
2019-01-08T20:14:20.903Z,3.13
2019-01-08T20:16:50.410Z,2.23
2019-01-08T20:19:19.948Z,2.87
2019-01-08T20:21:49.509Z,1.53
2019-01-08T20:24:19.051Z,1.53
2019-01-08T20:26:48.574Z,1.50
2019-01-08T20:29:18.110Z,2.00
2019-01-08T20:31:47.631Z,1.60
2019-01-08T20:34:17.138Z,1.67
2019-01-08T20:36:46.683Z,3.23
2019-01-08T20:39:16.200Z,1.97
2019-01-08T20:41:45.700Z,1.70
2019-01-08T20:44:15.268Z,2.00
2019-01-08T20:46:44.758Z,2.80
2019-01-08T20:49:14.293Z,1.23
2019-01-08T20:51:43.846Z,2.37
2019-01-08T20:54:13.364Z,1.07
2019-01-08T20:56:42.906Z,0.53
2019-01-08T20:59:12.467Z,0.90
2019-01-08T21:01:41.955Z,0.67
2019-01-08T21:04:11.480Z,1.20
2019-01-08T21:06:41.039Z,1.10
2019-01-08T21:09:10.623Z,0.90
2019-01-08T21:11:40.119Z,0.30
2019-01-08T21:14:09.664Z,1.20
2019-01-08T21:16:39.219Z,1.00
2019-01-08T21:19:08.955Z,2.17
2019-01-08T21:21:38.468Z,0.97
2019-01-08T21:24:10.548Z,1.50
2019-01-08T21:26:43.037Z,1.90
2019-01-08T21:29:12.511Z,2.50
2019-01-08T21:31:42.118Z,1.93
2019-01-08T21:34:11.670Z,1.00
2019-01-08T21:36:41.164Z,2.20
2019-01-08T21:39:10.677Z,1.17
2019-01-08T21:41:40.225Z,1.57
2019-01-08T21:44:09.725Z,1.27
2019-01-08T21:46:39.238Z,2.20
2019-01-08T21:49:11.348Z,2.60
2019-01-08T21:51:40.856Z,2.10
2019-01-08T21:54:10.358Z,4.80
2019-01-08T21:56:39.952Z,2.10
2019-01-08T21:59:09.469Z,0.50
2019-01-08T22:01:38.969Z,3.00
2019-01-08T22:04:11.544Z,1.23
2019-01-08T22:06:41.025Z,2.30
2019-01-08T22:09:10.571Z,2.33
2019-01-08T22:11:40.076Z,1.60
2019-01-08T22:14:09.580Z,1.63
2019-01-08T22:16:39.074Z,1.90
2019-01-08T22:19:08.664Z,2.03
2019-01-08T22:21:38.202Z,2.33
2019-01-08T22:24:07.703Z,1.20
2019-01-08T22:26:37.274Z,2.33
2019-01-08T22:29:06.748Z,1.43
2019-01-08T22:31:36.261Z,2.90
2019-01-08T22:34:05.889Z,3.67
2019-01-08T22:36:35.387Z,2.73
2019-01-08T22:39:05.879Z,1.50
2019-01-08T22:41:35.600Z,3.33
2019-01-08T22:44:05.187Z,2.57
2019-01-08T22:46:34.690Z,4.33
2019-01-08T22:49:04.295Z,3.17
2019-01-08T22:51:33.832Z,2.07
2019-01-08T22:54:03.257Z,4.17
2019-01-08T22:56:32.767Z,4.60
2019-01-08T22:59:02.313Z,4.53
2019-01-08T23:01:37.768Z,3.53
2019-01-08T23:04:08.993Z,2.93
2019-01-08T23:06:38.675Z,3.60
2019-01-08T23:09:09.037Z,4.10
2019-01-08T23:11:38.559Z,4.73
2019-01-08T23:14:08.170Z,5.90
2019-01-08T23:16:37.694Z,4.77
2019-01-08T23:19:08.151Z,6.43
2019-01-08T23:21:37.620Z,5.23
2019-01-08T23:24:07.136Z,4.33
2019-01-08T23:26:36.600Z,2.53
2019-01-08T23:29:06.152Z,3.50
2019-01-08T23:31:35.649Z,0.77
2019-01-08T23:34:05.200Z,0.50
2019-01-08T23:36:34.719Z,2.43
2019-01-08T23:39:05.599Z,1.47
2019-01-08T23:41:35.106Z,0.57
2019-01-08T23:44:04.651Z,0.80
2019-01-08T23:46:34.114Z,1.67
2019-01-08T23:49:03.588Z,2.20
2019-01-08T23:51:33.104Z,1.27
2019-01-08T23:54:03.993Z,0.73
2019-01-08T23:56:35.129Z,0.50
2019-01-08T23:59:04.654Z,1.20
